METAR Data
IDs: Format: Raw Decoded Include TAF

Data at: 0151 UTC 19 Oct 2021

KVBT 190056Z AUTO 15005KT 10SM CLR 15/08 A3008 RMK AO2 SLP189 T01500083
KVBT 182356Z AUTO 16005KT 10SM CLR 17/07 A3007 RMK AO2 SLP185 6//// T01720072 10222 20167 55007
KVBT 182256Z AUTO 17007KT 10SM CLR 20/07 A3007 RMK AO2 SLP182 T02000067
KVBT 182156Z AUTO 17008KT 10SM CLR 22/07 A3008 RMK AO2 SLP183 T02170067
KVBT 182056Z AUTO 16008KT 10SM CLR 22/07 A3010 RMK AO2 SLP189 6//// T02220067 56028
KVBT 181956Z AUTO VRB06KT 10SM CLR 22/07 A3011 RMK AO2 SLP193 T02170072
KVBT 181856Z AUTO 19009KT 10SM CLR 22/07 A3014 RMK AO2 SLP206 T02170072
KVBT 181756Z AUTO 19006KT 10SM CLR 21/07 A3018 RMK AO2 SLP219 6//// T02060067 10206 20067 58016
KVBT 181656Z AUTO 16007KT 10SM CLR 20/08 A3020 RMK AO2 SLP226 T02000078
KVBT 181556Z AUTO 18006KT 10SM CLR 18/07 A3022 RMK AO2 SLP232 T01780072
KVBT 181456Z AUTO 16004KT 10SM CLR 15/09 A3023 RMK AO2 SLP236 T01500089 51012
KVBT 181356Z AUTO 16003KT 10SM CLR 11/08 A3022 RMK AO2 SLP236 T01110083
KVBT 181256Z AUTO 16003KT 10SM CLR 08/07 A3020 RMK AO2 SLP230 T00830067
KVBT 181156Z AUTO 00000KT 10SM CLR 08/07 A3019 RMK AO2 SLP226 6//// 7//// T00780067 10100 20072 53003
KVBT 181056Z AUTO 13003KT 10SM CLR 08/07 A3019 RMK AO2 SLP224 T00780067
KVBT 180956Z AUTO 15004KT 10SM CLR 08/07 A3018 RMK AO2 SLP219 T00830072
KVBT 180856Z AUTO 00000KT 10SM CLR 08/07 A3018 RMK AO2 SLP219 6//// T00780072 58005
KVBT 180756Z AUTO 00000KT 10SM CLR 08/08 A3019 RMK AO2 SLP222 T00830078
KVBT 180656Z AUTO 00000KT 10SM CLR 09/08 A3020 RMK AO2 SLP224 T00890078
KVBT 180556Z AUTO 00000KT 10SM CLR 10/08 A3020 RMK AO2 SLP225 6//// T01000078 10172 20100 402170050 58007
KVBT 180456Z AUTO 00000KT 10SM CLR 12/07 A3021 RMK AO2 SLP228 T01170072
KVBT 180356Z AUTO 00000KT 10SM CLR 12/07 A3021 RMK AO2 SLP232 T01220072
KVBT 180256Z AUTO 18004KT 10SM CLR 14/07 A3022 RMK AO2 SLP234 6//// T01390067 53002
KVBT 180156Z AUTO 15004KT 10SM CLR 13/08 A3021 RMK AO2 SLP234 T01330083
KVBT 180056Z AUTO 16003KT 10SM CLR 14/08 A3021 RMK AO2 SLP235 T01440083
KVBT 172356Z AUTO 17003KT 10SM CLR 17/08 A3021 RMK AO2 SLP233 6//// T01670078 10217 20167 56008
KVBT 172335Z AUTO 00000KT 10SM FEW001 18/06 A3021 RMK AO2
KVBT 172256Z AUTO 25004KT 10SM CLR 20/06 A3022 RMK AO2 SLP234 T02000061
KVBT 172156Z AUTO 26007KT 10SM CLR 21/06 A3022 RMK AO2 SLP236 T02110056
KVBT 172056Z AUTO 25007KT 10SM 22/05 A3024 RMK AO2 SLP239 6//// T02170050 56021
KVBT 171956Z AUTO 24009KT 10SM CLR 21/04 A3025 RMK AO2 SLP243 T02110044
KVBT 171856Z AUTO 25005KT 10SM CLR 21/04 A3027 RMK AO2 SLP250 T02110039
KVBT 171756Z AUTO 24006KT 10SM CLR 20/06 A3030 RMK AO2 SLP261 6//// T02000056 10200 20050 58015
KVBT 171656Z AUTO 24007KT 10SM CLR 18/06 A3033 RMK AO2 SLP270 T01830056
KVBT 171556Z AUTO 23005KT 10SM CLR 16/07 A3034 RMK AO2 SLP276 T01560067
KVBT 171456Z AUTO 21004KT 10SM CLR 13/07 A3035 RMK AO2 SLP279 T01280067 53007
KVBT 171356Z AUTO 15003KT 10SM CLR 09/07 A3034 RMK AO2 SLP278 T00940067